createdAt,value
2018-01-08T00:01:04.207Z,5.22
2018-01-08T00:03:43.718Z,4.45
2018-01-08T00:06:15.547Z,6.07
2018-01-08T00:08:45.011Z,5.28
2018-01-08T00:11:16.332Z,6.60
2018-01-08T00:13:44.558Z,6.55
2018-01-08T00:16:17.633Z,5.32
2018-01-08T00:18:46.741Z,4.20
2018-01-08T00:21:22.165Z,5.22
2018-01-08T00:23:53.552Z,3.35
2018-01-08T00:26:24.484Z,3.72
2018-01-08T00:28:52.249Z,4.37
2018-01-08T00:31:19.969Z,6.80
2018-01-08T00:33:47.454Z,5.32
2018-01-08T00:36:15.002Z,5.07
2018-01-08T00:38:42.506Z,5.40
2018-01-08T00:41:11.825Z,6.85
2018-01-08T00:43:39.931Z,5.20
2018-01-08T00:46:07.388Z,4.85
2018-01-08T00:48:34.878Z,4.20
2018-01-08T00:51:04.300Z,6.93
2018-01-08T00:53:31.770Z,6.45
2018-01-08T00:55:59.667Z,4.12
2018-01-08T00:58:28.352Z,4.57
2018-01-08T01:00:55.814Z,8.70
2018-01-08T01:03:23.295Z,3.50
2018-01-08T01:05:54.657Z,6.10
2018-01-08T01:08:22.108Z,3.92
2018-01-08T01:10:50.478Z,6.18
2018-01-08T01:13:18.006Z,6.37
2018-01-08T01:15:46.418Z,5.20
2018-01-08T01:18:13.911Z,5.57
2018-01-08T01:20:41.813Z,5.07
2018-01-08T01:31:50.778Z,5.82
2018-01-08T01:48:44.547Z,4.30
2018-01-08T01:59:59.462Z,6.22
2018-01-08T02:02:43.912Z,5.75
2018-01-08T02:05:31.469Z,7.80
2018-01-08T02:08:13.836Z,3.60
2018-01-08T02:10:42.245Z,5.68
2018-01-08T02:13:09.695Z,4.90
2018-01-08T02:15:38.138Z,4.95
2018-01-08T02:18:06.547Z,7.10
2018-01-08T02:20:34.382Z,5.18
2018-01-08T02:23:02.917Z,5.32
2018-01-08T02:25:31.248Z,4.90
2018-01-08T02:27:58.677Z,5.45
2018-01-08T02:30:28.093Z,5.15
2018-01-08T02:33:04.094Z,5.60
2018-01-08T02:38:29.252Z,6.75
2018-01-08T02:41:17.040Z,6.00
2018-01-08T02:43:44.911Z,4.25
2018-01-08T02:52:00.243Z,8.05
2018-01-08T03:03:29.163Z,3.17
2018-01-08T03:17:49.472Z,6.65
2018-01-08T03:26:10.299Z,8.25
2018-01-08T03:48:58.305Z,9.10
2018-01-08T03:51:45.587Z,11.80
2018-01-08T04:02:52.266Z,6.87
2018-01-08T04:05:40.058Z,8.30
2018-01-08T04:17:03.134Z,9.00
2018-01-08T04:36:51.324Z,11.12
2018-01-08T04:39:43.783Z,9.68
2018-01-08T05:09:05.311Z,8.75
2018-01-08T11:36:24.955Z,9.10
2018-01-08T11:38:54.024Z,13.10
2018-01-08T11:41:21.503Z,15.68
2018-01-08T11:43:53.311Z,11.30
2018-01-08T11:46:33.836Z,14.43
2018-01-08T12:06:30.214Z,9.88
2018-01-08T12:11:50.364Z,14.95
2018-01-08T12:20:07.790Z,13.20
2018-01-08T13:28:55.356Z,8.93
2018-01-08T13:31:29.154Z,8.43
2018-01-08T13:33:57.110Z,14.93
2018-01-08T13:36:27.815Z,11.77
2018-01-08T13:41:39.311Z,9.60
2018-01-08T13:44:13.590Z,9.82
2018-01-08T13:46:41.056Z,10.85
2018-01-08T13:49:12.674Z,8.45
2018-01-08T13:51:46.802Z,12.55
2018-01-08T13:54:24.027Z,10.27
2018-01-08T13:56:55.021Z,9.05
2018-01-08T13:59:29.085Z,11.35
2018-01-08T14:01:58.516Z,9.85
2018-01-08T14:04:32.144Z,10.73
2018-01-08T14:07:05.457Z,19.02
2018-01-08T14:09:38.285Z,15.50
2018-01-08T14:12:06.963Z,12.50
2018-01-08T14:14:40.243Z,10.95
2018-01-08T14:17:11.808Z,13.48
2018-01-08T14:19:39.362Z,11.10
2018-01-08T14:22:07.434Z,13.38
2018-01-08T14:24:38.590Z,13.98
2018-01-08T14:27:07.898Z,12.73
2018-01-08T14:29:42.199Z,9.00
2018-01-08T14:32:12.124Z,14.00
2018-01-08T14:34:42.371Z,13.00
2018-01-08T14:37:12.440Z,10.57
2018-01-08T14:39:44.734Z,15.27
2018-01-08T14:42:12.610Z,9.80
2018-01-08T14:44:40.042Z,11.93
2018-01-08T14:47:07.870Z,14.15
2018-01-08T14:49:35.309Z,12.70
2018-01-08T14:52:02.766Z,12.27
2018-01-08T14:54:31.329Z,8.65
2018-01-08T14:56:58.815Z,10.90
2018-01-08T14:59:33.663Z,19.77
2018-01-08T15:02:01.096Z,10.75
2018-01-08T15:04:28.796Z,15.90
2018-01-08T15:07:19.621Z,12.98
2018-01-08T15:09:50.680Z,18.52
2018-01-08T15:15:13.418Z,15.75
2018-01-08T15:17:44.859Z,13.68
2018-01-08T15:20:12.842Z,12.48
2018-01-08T15:22:41.168Z,13.85
2018-01-08T15:25:09.688Z,14.10
2018-01-08T15:27:39.726Z,13.95
2018-01-08T15:30:07.125Z,11.75
2018-01-08T15:32:35.798Z,11.95
2018-01-08T15:35:04.837Z,11.70
2018-01-08T15:37:33.479Z,10.90
2018-01-08T15:42:54.632Z,13.55
2018-01-08T15:45:22.062Z,14.45
2018-01-08T15:47:49.826Z,14.02
2018-01-08T15:50:22.954Z,15.65
2018-01-08T15:52:57.481Z,15.85
2018-01-08T15:55:40.002Z,17.80
2018-01-08T15:58:07.434Z,19.85
2018-01-08T16:00:38.244Z,17.00
2018-01-08T16:06:04.668Z,22.37
2018-01-08T16:08:35.608Z,17.52
2018-01-08T18:30:17.542Z,11.30
2018-01-08T18:32:45.005Z,16.33
2018-01-08T18:35:13.370Z,16.48
2018-01-08T18:37:41.644Z,14.90
2018-01-08T18:40:11.045Z,17.25
2018-01-08T18:42:38.550Z,14.48
2018-01-08T18:45:05.971Z,13.45
2018-01-08T18:47:33.414Z,14.82
2018-01-08T18:50:00.849Z,12.25
2018-01-08T18:52:28.327Z,20.73
2018-01-08T18:54:55.753Z,18.75
2018-01-08T18:57:23.596Z,15.65
2018-01-08T18:59:51.058Z,11.32
2018-01-08T19:02:19.335Z,15.23
2018-01-08T19:04:46.794Z,11.68
2018-01-08T19:07:16.169Z,11.00
2018-01-08T19:09:43.623Z,15.13
2018-01-08T19:12:11.073Z,12.07
2018-01-08T19:14:39.146Z,16.65
2018-01-08T19:17:07.438Z,15.52
2018-01-08T19:19:34.898Z,20.35
2018-01-08T19:22:02.730Z,25.12
2018-01-08T19:24:31.070Z,21.08
2018-01-08T19:26:59.784Z,15.40
2018-01-08T19:29:27.241Z,25.30
2018-01-08T19:31:57.597Z,16.25
2018-01-08T19:34:25.966Z,24.23
2018-01-08T19:36:53.509Z,23.27
2018-01-08T19:39:20.982Z,19.00
2018-01-08T19:41:48.429Z,18.52
2018-01-08T19:44:15.882Z,16.70
2018-01-08T19:46:43.359Z,16.37
2018-01-08T19:49:12.736Z,14.75
2018-01-08T19:51:40.178Z,14.80
2018-01-08T19:54:07.634Z,21.12
2018-01-08T19:56:38.173Z,13.70
2018-01-08T19:59:05.670Z,17.45
2018-01-08T20:01:33.114Z,17.83
2018-01-08T20:06:53.941Z,15.30
2018-01-08T20:09:21.806Z,16.12
2018-01-08T20:11:50.156Z,13.02
2018-01-08T20:14:17.608Z,12.05
2018-01-08T20:16:45.056Z,17.87
2018-01-08T20:19:12.492Z,17.23
2018-01-08T20:21:40.317Z,11.88
2018-01-08T20:24:07.775Z,13.40
2018-01-08T20:26:35.214Z,12.93
2018-01-08T20:29:02.690Z,13.93
2018-01-08T20:31:30.170Z,17.70
2018-01-08T20:33:57.662Z,11.65
2018-01-08T20:36:27.977Z,9.25
2018-01-08T20:38:55.763Z,11.73
2018-01-08T20:41:23.838Z,11.50
2018-01-08T20:43:51.290Z,14.48
2018-01-08T20:46:19.675Z,17.83
2018-01-08T20:48:47.154Z,17.10
2018-01-08T20:51:14.599Z,14.60
2018-01-08T20:53:42.056Z,14.98
2018-01-08T20:56:09.507Z,13.55
2018-01-08T20:58:36.974Z,14.85
2018-01-08T21:01:05.846Z,12.52
2018-01-08T21:03:34.234Z,19.87
2018-01-08T21:06:01.902Z,22.77
2018-01-08T21:12:31.142Z,23.40
2018-01-08T21:14:58.618Z,17.85
2018-01-08T21:17:26.056Z,20.85
2018-01-08T21:19:53.498Z,17.23
2018-01-08T21:22:21.882Z,13.13
2018-01-08T21:24:49.854Z,16.40
2018-01-08T21:27:18.613Z,13.95
2018-01-08T21:29:48.490Z,12.63
2018-01-08T21:35:03.456Z,10.82
2018-01-08T21:37:30.943Z,11.93
2018-01-08T21:40:08.335Z,12.73
2018-01-08T21:42:42.611Z,13.98
2018-01-08T21:45:11.670Z,14.52
2018-01-08T21:47:43.795Z,11.82
2018-01-08T21:55:43.411Z,12.45
2018-01-08T21:58:10.888Z,13.55
2018-01-08T22:03:15.962Z,17.37
2018-01-08T22:05:48.403Z,13.48
2018-01-08T22:08:23.660Z,13.18
2018-01-08T22:10:52.129Z,12.15
2018-01-08T22:13:29.896Z,11.45
2018-01-08T22:16:01.917Z,11.25
2018-01-08T22:18:30.568Z,13.50
2018-01-08T22:21:10.077Z,12.43
2018-01-08T22:23:41.209Z,12.40
2018-01-08T22:26:20.444Z,12.45
2018-01-08T22:28:47.878Z,12.20
2018-01-08T22:31:21.718Z,14.50
2018-01-08T22:33:54.881Z,11.57
2018-01-08T22:36:34.644Z,11.00
2018-01-08T22:39:02.090Z,12.52
2018-01-08T22:41:31.489Z,9.60
2018-01-08T22:43:58.919Z,11.48
2018-01-08T22:46:28.549Z,15.43
2018-01-08T22:49:00.955Z,11.90
2018-01-08T22:51:30.437Z,12.40
2018-01-08T22:53:58.825Z,11.10
2018-01-08T22:56:35.601Z,7.90
2018-01-08T22:59:05.123Z,13.35
